Terminal Aerodrome Forecast
Issued by NWS Pittsburgh, PA

Current Version | Previous Version | Graphics & Text | Print | Product List | Glossary On
Versions: 1 2 3 4 5 6 7 8 9 10 11 12 13 14 15 16 17 18 19 20 21 22 23 24 25 26 27 28
000
FTUS41 KPBZ 251700
TAFPIT
TAF
KPIT 251720Z 2518/2624 22012G22KT P6SM BKN035
     FM252300 27008KT P6SM SCT035
     FM261000 01004KT P6SM -SN OVC050
     FM261400 02005KT 2SM -SN BR OVC015
     FM262000 05005KT P6SM -SN OVC025=

USA.gov is the U.S. government's official web portal to all federal, state and local government web resources and services.